Time;durP1;ratioP1;P1;durP2;ratioP2;P2;SDS_P1;SDS_P2;PMS_P1;PMS_P2;Temp;Humidity;BMP_temperature;BMP_pressure;BME280_temperature;BME280_humidity;BME280_pressure;Samples;Min_cycle;Max_cycle;Signal;HPM_P1;HPM_P2
2023/06/30 00:02:24;;;;;;;3.72;1.90;;;27.10;53.10;;;;;;5075467;28;20040;-78
2023/06/30 00:04:51;;;;;;;2.50;1.98;;;27.30;53.10;;;;;;5092258;28;20043;-78
2023/06/30 00:07:21;;;;;;;5.05;1.65;;;27.10;53.10;;;;;;5092383;28;20068;-78
2023/06/30 00:09:48;;;;;;;2.17;1.98;;;27.10;53.10;;;;;;5075282;28;20047;-78
2023/06/30 00:12:14;;;;;;;3.20;2.20;;;27.20;53.00;;;;;;5092169;28;20500;-78
2023/06/30 00:14:40;;;;;;;2.10;1.85;;;27.10;53.10;;;;;;5075473;28;20047;-78
2023/06/30 00:17:06;;;;;;;2.60;2.00;;;27.20;53.00;;;;;;5092087;28;20044;-78
2023/06/30 00:19:32;;;;;;;1.88;1.58;;;27.10;53.00;;;;;;5091979;28;20455;-78
2023/06/30 00:21:58;;;;;;;2.50;2.13;;;27.10;53.00;;;;;;5091834;28;20032;-78
2023/06/30 00:24:24;;;;;;;2.60;1.90;;;27.20;53.00;;;;;;5091960;28;20574;-78
2023/06/30 00:26:50;;;;;;;4.60;2.30;;;27.10;53.00;;;;;;5092043;28;20040;-78
2023/06/30 00:29:16;;;;;;;3.47;2.13;;;27.20;53.00;;;;;;5079339;28;20040;-78
2023/06/30 00:31:42;;;;;;;2.35;2.15;;;27.10;53.00;;;;;;5113191;28;20092;-78
2023/06/30 00:34:08;;;;;;;2.47;2.28;;;27.20;53.00;;;;;;5114272;28;20494;-78
2023/06/30 00:36:34;;;;;;;1.90;1.70;;;27.30;53.00;;;;;;5114865;28;20425;-78
2023/06/30 00:39:00;;;;;;;4.05;1.65;;;27.30;53.00;;;;;;5113330;28;20039;-78
2023/06/30 00:41:26;;;;;;;1.75;1.65;;;27.30;53.00;;;;;;5114414;28;20368;-78
2023/06/30 00:43:52;;;;;;;2.88;1.73;;;27.30;53.00;;;;;;5096277;28;20044;-77
2023/06/30 00:46:18;;;;;;;2.50;2.00;;;27.20;52.90;;;;;;5114622;28;20028;-76
2023/06/30 00:48:45;;;;;;;3.55;2.22;;;27.30;52.80;;;;;;5094472;28;20149;-77
2023/06/30 00:51:12;;;;;;;3.42;2.08;;;27.30;52.80;;;;;;5094902;28;20179;-76
2023/06/30 00:53:39;;;;;;;2.10;1.90;;;27.30;52.70;;;;;;5111860;28;20058;-76
2023/06/30 00:56:05;;;;;;;2.15;1.95;;;27.40;52.80;;;;;;5111751;28;20160;-76
2023/06/30 00:58:31;;;;;;;2.05;1.95;;;27.30;52.80;;;;;;5094787;28;20137;-76
2023/06/30 01:01:20;;;;;;;2.97;1.90;;;27.30;52.70;;;;;;5110119;28;20035;-77
2023/06/30 01:03:54;;;;;;;2.55;1.73;;;27.40;52.70;;;;;;5111651;28;20051;-76
2023/06/30 01:06:54;;;;;;;4.20;1.67;;;27.20;52.60;;;;;;5111534;28;20112;-77
2023/06/30 01:09:26;;;;;;;4.97;1.65;;;27.20;52.60;;;;;;5054128;28;20079;-77
2023/06/30 01:11:53;;;;;;;2.53;1.80;;;27.20;52.60;;;;;;5053917;28;20598;-76
2023/06/30 01:14:21;;;;;;;3.10;2.00;;;27.20;52.60;;;;;;5070556;28;20059;-76
2023/06/30 01:16:49;;;;;;;1.77;1.65;;;27.20;52.60;;;;;;5070676;28;20037;-76
2023/06/30 01:19:26;;;;;;;4.50;2.38;;;27.30;52.70;;;;;;5070662;28;20059;-76
2023/06/30 01:21:55;;;;;;;4.40;2.15;;;27.20;52.70;;;;;;5037249;28;20029;-76
2023/06/30 01:24:26;;;;;;;2.22;1.67;;;27.20;52.70;;;;;;5053918;28;20170;-77
2023/06/30 01:26:53;;;;;;;2.13;1.70;;;27.20;52.70;;;;;;5070725;28;20530;-77
2023/06/30 01:29:19;;;;;;;1.98;1.77;;;27.10;52.70;;;;;;5053863;28;20044;-77
2023/06/30 01:31:45;;;;;;;1.80;1.65;;;27.10;52.80;;;;;;5070319;28;20158;-76
2023/06/30 01:34:11;;;;;;;2.40;1.63;;;27.10;52.80;;;;;;5053684;28;20048;-76
2023/06/30 01:36:38;;;;;;;3.00;1.70;;;27.10;52.70;;;;;;5070313;28;20587;-76
2023/06/30 01:39:04;;;;;;;4.15;1.80;;;27.30;52.70;;;;;;5070234;28;20541;-76
2023/06/30 01:41:30;;;;;;;2.10;1.45;;;27.20;52.70;;;;;;5036562;28;20048;-76
2023/06/30 01:43:59;;;;;;;2.33;1.67;;;27.10;52.70;;;;;;5070266;28;20450;-76
2023/06/30 01:46:26;;;;;;;1.98;1.80;;;27.20;52.70;;;;;;5098855;28;20356;-77
2023/06/30 01:48:52;;;;;;;1.90;1.80;;;27.30;52.60;;;;;;5111880;28;20077;-77
2023/06/30 01:51:18;;;;;;;2.15;1.95;;;27.20;52.70;;;;;;5111643;28;20792;-78
2023/06/30 01:53:44;;;;;;;1.75;1.65;;;27.10;52.70;;;;;;5095105;28;20043;-78
2023/06/30 01:56:11;;;;;;;4.10;1.90;;;27.20;52.70;;;;;;5111768;28;20150;-78
2023/06/30 01:58:37;;;;;;;2.72;2.10;;;27.30;52.70;;;;;;5111779;28;20042;-78
2023/06/30 02:01:03;;;;;;;2.33;1.90;;;27.20;52.60;;;;;;5110212;28;20423;-78
2023/06/30 02:03:29;;;;;;;2.47;1.80;;;27.10;52.70;;;;;;5089998;28;20101;-78
2023/06/30 02:05:55;;;;;;;2.92;1.90;;;27.20;52.60;;;;;;5090032;28;20044;-79
2023/06/30 02:08:22;;;;;;;2.00;1.75;;;27.30;52.60;;;;;;5090003;28;20055;-78
2023/06/30 02:10:48;;;;;;;2.05;1.85;;;27.30;52.60;;;;;;5055823;28;20048;-78
2023/06/30 02:13:16;;;;;;;2.20;2.00;;;27.30;52.60;;;;;;5072444;28;20052;-78
2023/06/30 02:15:42;;;;;;;2.53;2.03;;;27.20;52.60;;;;;;5089875;28;20055;-78
2023/06/30 02:18:08;;;;;;;2.17;1.98;;;27.20;52.60;;;;;;5089803;28;20032;-78
2023/06/30 02:20:35;;;;;;;2.70;2.03;;;27.10;52.70;;;;;;5089660;28;20543;-79
2023/06/30 02:23:02;;;;;;;6.32;2.03;;;27.10;52.70;;;;;;5089417;28;20044;-78
2023/06/30 02:25:28;;;;;;;1.80;1.70;;;27.20;52.70;;;;;;5089728;28;20036;-78
2023/06/30 02:27:54;;;;;;;3.05;1.65;;;27.20;52.70;;;;;;5089720;28;20050;-78
2023/06/30 02:30:20;;;;;;;1.85;1.73;;;27.10;52.70;;;;;;5089591;28;20047;-78
2023/06/30 02:32:46;;;;;;;3.15;2.22;;;27.10;52.80;;;;;;5072458;28;20873;-78
2023/06/30 02:35:13;;;;;;;4.22;2.13;;;26.90;52.20;;;;;;5107722;28;20036;-78
2023/06/30 02:37:39;;;;;;;3.88;1.90;;;27.10;52.70;;;;;;5111506;28;20039;-78
2023/06/30 02:40:06;;;;;;;4.82;2.15;;;27.00;52.80;;;;;;5112442;28;20039;-78
2023/06/30 02:42:32;;;;;;;3.55;2.20;;;27.00;52.70;;;;;;5112242;28;20320;-76
2023/06/30 02:44:59;;;;;;;5.18;2.67;;;27.10;52.80;;;;;;5111964;28;20058;-78
2023/06/30 02:47:25;;;;;;;4.40;1.95;;;27.00;52.80;;;;;;5112222;28;20038;-78
2023/06/30 02:49:51;;;;;;;9.45;2.30;;;27.10;52.70;;;;;;5111125;28;20455;-78
2023/06/30 02:52:17;;;;;;;7.07;2.30;;;27.00;52.70;;;;;;5110594;28;20082;-79
2023/06/30 02:54:43;;;;;;;6.72;2.63;;;27.10;52.70;;;;;;5109595;28;20085;-78
2023/06/30 02:57:09;;;;;;;4.22;2.35;;;27.10;52.90;;;;;;5088842;28;20161;-78
2023/06/30 02:59:35;;;;;;;4.45;2.10;;;27.10;52.80;;;;;;5072198;28;20126;-78
2023/06/30 03:02:02;;;;;;;7.20;2.75;;;27.10;52.80;;;;;;5071748;28;20130;-78
2023/06/30 03:04:30;;;;;;;3.20;2.38;;;27.20;52.70;;;;;;5072298;28;20071;-78
2023/06/30 03:06:56;;;;;;;6.95;2.67;;;27.00;52.70;;;;;;5072233;28;20056;-78
2023/06/30 03:09:22;;;;;;;3.88;2.05;;;27.20;52.70;;;;;;5072142;28;20146;-78
2023/06/30 03:11:48;;;;;;;5.60;2.22;;;27.10;52.70;;;;;;5071829;28;20056;-78
2023/06/30 03:14:16;;;;;;;2.60;2.10;;;27.10;52.70;;;;;;5072098;28;20072;-78
2023/06/30 03:16:43;;;;;;;3.65;2.35;;;27.20;52.70;;;;;;5072033;28;20044;-78
2023/06/30 03:19:10;;;;;;;3.13;2.53;;;27.10;52.70;;;;;;5072003;28;20078;-78
2023/06/30 03:21:37;;;;;;;5.03;2.38;;;27.10;52.70;;;;;;5072036;28;20192;-78
2023/06/30 03:24:03;;;;;;;2.35;2.13;;;27.10;52.70;;;;;;5090730;28;20028;-78
2023/06/30 03:26:29;;;;;;;4.32;2.75;;;27.10;52.80;;;;;;5093126;28;20149;-78
2023/06/30 03:28:55;;;;;;;10.15;2.67;;;27.00;52.80;;;;;;5110662;28;20188;-78
2023/06/30 03:31:22;;;;;;;3.90;2.78;;;27.00;52.80;;;;;;5114315;28;20032;-79
2023/06/30 03:33:48;;;;;;;2.50;2.08;;;27.00;52.90;;;;;;5114701;28;20150;-78
2023/06/30 03:36:15;;;;;;;7.03;2.40;;;27.10;52.80;;;;;;5114614;28;20035;-78
2023/06/30 03:38:41;;;;;;;9.48;2.85;;;27.00;53.00;;;;;;5097771;28;20031;-76
2023/06/30 03:41:07;;;;;;;4.30;2.53;;;27.10;52.90;;;;;;5097460;28;20043;-77
2023/06/30 03:43:33;;;;;;;2.97;1.95;;;27.00;52.80;;;;;;5114319;28;20371;-76
2023/06/30 03:46:01;;;;;;;3.35;1.95;;;27.00;52.80;;;;;;5114277;28;20043;-76
2023/06/30 03:48:27;;;;;;;2.22;1.67;;;27.10;52.80;;;;;;5115791;28;20031;-76
2023/06/30 03:50:54;;;;;;;4.95;2.22;;;27.10;52.80;;;;;;5114137;28;20412;-78
2023/06/30 03:53:21;;;;;;;2.47;1.98;;;27.00;52.80;;;;;;5113996;28;20380;-78
2023/06/30 03:55:47;;;;;;;2.60;2.00;;;27.00;52.80;;;;;;5115433;28;20023;-78
2023/06/30 03:58:14;;;;;;;2.40;1.67;;;27.10;52.80;;;;;;5113209;28;20510;-78
2023/06/30 04:00:40;;;;;;;2.33;1.63;;;27.10;52.80;;;;;;5115233;28;20085;-78
2023/06/30 04:03:06;;;;;;;2.40;2.20;;;27.10;52.70;;;;;;5115367;27;20028;-78
2023/06/30 04:05:32;;;;;;;5.70;2.35;;;27.20;52.80;;;;;;5115671;28;20030;-78
2023/06/30 04:07:58;;;;;;;3.38;2.10;;;27.00;52.80;;;;;;5115382;28;20034;-79
2023/06/30 04:10:24;;;;;;;3.45;2.35;;;27.10;52.80;;;;;;5115400;28;20039;-78
2023/06/30 04:12:50;;;;;;;3.28;1.90;;;27.00;52.70;;;;;;5114990;28;20507;-78
2023/06/30 04:15:16;;;;;;;4.72;2.28;;;27.10;52.70;;;;;;5115564;28;20476;-78
2023/06/30 04:17:41;;;;;;;2.65;2.45;;;27.20;52.80;;;;;;5115092;28;20024;-78
2023/06/30 04:20:09;;;;;;;6.20;2.63;;;27.10;52.70;;;;;;5115257;28;20031;-78
2023/06/30 04:22:38;;;;;;;4.38;2.50;;;27.00;52.70;;;;;;5114728;28;20364;-78
2023/06/30 04:25:06;;;;;;;3.17;2.33;;;27.00;52.80;;;;;;5114915;28;20050;-78
2023/06/30 04:27:32;;;;;;;4.13;2.65;;;27.10;52.80;;;;;;5114695;28;20043;-78
2023/06/30 04:29:58;;;;;;;7.28;2.90;;;27.10;52.80;;;;;;5115012;28;20031;-78
2023/06/30 04:32:24;;;;;;;5.00;2.85;;;26.90;52.20;;;;;;5114551;28;20044;-78
2023/06/30 04:34:50;;;;;;;3.00;2.25;;;27.10;52.80;;;;;;5114474;28;20038;-78
2023/06/30 04:37:16;;;;;;;3.22;2.60;;;27.00;52.80;;;;;;5114595;28;20019;-78
2023/06/30 04:39:46;;;;;;;4.20;2.42;;;26.90;52.30;;;;;;5113152;28;20043;-78
2023/06/30 04:42:13;;;;;;;2.45;2.25;;;27.00;52.90;;;;;;5114066;28;20075;-78
2023/06/30 04:44:39;;;;;;;3.88;2.05;;;27.10;52.80;;;;;;5112850;28;20142;-78
2023/06/30 04:47:05;;;;;;;3.50;2.28;;;27.00;52.90;;;;;;5114358;28;20506;-78
2023/06/30 04:49:31;;;;;;;3.92;2.67;;;27.00;52.90;;;;;;5113087;28;20111;-78
2023/06/30 04:51:57;;;;;;;11.23;6.47;;;27.10;52.90;;;;;;5112736;28;20127;-78
2023/06/30 04:54:23;;;;;;;16.88;7.07;;;26.90;52.30;;;;;;5114296;28;20480;-78
2023/06/30 04:56:49;;;;;;;9.52;5.43;;;27.10;52.80;;;;;;5114095;28;20032;-78
2023/06/30 04:59:15;;;;;;;8.43;4.88;;;27.10;52.80;;;;;;5114174;28;20494;-78
2023/06/30 05:01:41;;;;;;;11.18;4.47;;;27.00;52.90;;;;;;5113970;28;20031;-79
2023/06/30 05:04:08;;;;;;;6.28;3.95;;;27.10;52.90;;;;;;5112735;28;20038;-78
2023/06/30 05:06:34;;;;;;;10.18;5.95;;;27.00;52.90;;;;;;5112603;28;20036;-77
2023/06/30 05:08:59;;;;;;;10.90;4.65;;;27.20;52.80;;;;;;5113995;28;20028;-78
2023/06/30 05:11:25;;;;;;;7.03;4.60;;;27.10;52.80;;;;;;5113843;28;20364;-78
2023/06/30 05:13:51;;;;;;;9.27;4.47;;;27.10;52.80;;;;;;5113840;28;20031;-78
2023/06/30 05:16:17;;;;;;;5.85;4.20;;;27.20;52.80;;;;;;5113874;28;20044;-78
2023/06/30 05:18:43;;;;;;;10.93;5.75;;;27.10;52.80;;;;;;5113824;28;20229;-78
2023/06/30 05:21:09;;;;;;;17.92;9.98;;;27.00;52.80;;;;;;5112502;28;20114;-78
2023/06/30 05:23:35;;;;;;;11.32;5.70;;;27.00;52.80;;;;;;5113681;28;20031;-78
2023/06/30 05:26:01;;;;;;;5.53;3.85;;;26.90;52.30;;;;;;5112560;28;20050;-78
2023/06/30 05:28:27;;;;;;;11.02;5.68;;;27.10;52.80;;;;;;5112455;28;20036;-78
2023/06/30 05:30:53;;;;;;;10.52;5.97;;;26.90;52.20;;;;;;5113716;28;20049;-78
2023/06/30 05:33:20;;;;;;;9.32;5.70;;;27.00;52.80;;;;;;5112165;28;20044;-78
2023/06/30 05:35:45;;;;;;;6.25;4.65;;;27.10;52.80;;;;;;5113491;28;20032;-78
2023/06/30 05:38:11;;;;;;;1.80;1.70;;;26.90;52.20;;;;;;5113600;28;20046;-78
2023/06/30 05:40:37;;;;;;;1.88;1.60;;;27.00;52.80;;;;;;5113190;27;20063;-78
2023/06/30 05:43:03;;;;;;;1.25;1.13;;;27.00;52.80;;;;;;5111933;28;20038;-78
2023/06/30 05:45:29;;;;;;;1.63;1.30;;;27.10;52.80;;;;;;5113327;28;20031;-78
2023/06/30 05:47:56;;;;;;;1.20;1.00;;;27.10;52.90;;;;;;5112943;28;20031;-78
2023/06/30 05:50:23;;;;;;;1.27;1.17;;;27.00;53.00;;;;;;5113053;28;20044;-78
2023/06/30 05:52:50;;;;;;;1.40;1.30;;;27.10;53.00;;;;;;5113034;28;20047;-78
2023/06/30 05:55:16;;;;;;;2.15;1.33;;;27.00;53.00;;;;;;5112966;28;20046;-78
2023/06/30 05:57:42;;;;;;;1.00;0.90;;;27.10;53.00;;;;;;5113144;28;20081;-78
2023/06/30 06:00:08;;;;;;;1.17;0.98;;;27.00;53.00;;;;;;5112981;28;20031;-78
2023/06/30 06:02:42;;;;;;;1.20;1.10;;;27.00;52.90;;;;;;5094677;28;20115;-78
2023/06/30 06:05:08;;;;;;;1.60;1.23;;;27.10;52.90;;;;;;5113057;28;20073;-78
2023/06/30 06:07:34;;;;;;;1.48;1.10;;;27.00;53.00;;;;;;5112794;28;20038;-78
2023/06/30 06:10:00;;;;;;;1.27;1.17;;;27.10;53.00;;;;;;5112850;28;20136;-78
2023/06/30 06:12:26;;;;;;;0.98;0.98;;;27.00;53.00;;;;;;5112658;28;20067;-78
2023/06/30 06:14:52;;;;;;;2.05;1.48;;;27.00;53.00;;;;;;5094685;28;20039;-78
2023/06/30 06:17:18;;;;;;;1.15;1.05;;;27.10;53.00;;;;;;5112673;28;20066;-78
2023/06/30 06:19:44;;;;;;;1.20;1.10;;;27.00;53.00;;;;;;5112620;28;20036;-78
2023/06/30 06:22:10;;;;;;;1.08;1.00;;;27.10;53.00;;;;;;5110922;28;20681;-78
2023/06/30 06:24:36;;;;;;;5.75;1.48;;;27.20;52.90;;;;;;5112913;28;20031;-78
2023/06/30 06:27:02;;;;;;;1.13;0.90;;;27.10;53.00;;;;;;5112756;28;20112;-78
2023/06/30 06:29:28;;;;;;;1.00;0.95;;;26.90;52.40;;;;;;5112371;28;20026;-78
2023/06/30 06:31:54;;;;;;;1.35;0.90;;;27.10;52.90;;;;;;5112508;28;20408;-78
2023/06/30 06:34:21;;;;;;;1.13;1.02;;;27.00;52.90;;;;;;5111026;28;20039;-78
2023/06/30 06:36:48;;;;;;;1.23;1.10;;;27.00;53.00;;;;;;5112343;28;20062;-78
2023/06/30 06:39:14;;;;;;;1.10;1.00;;;27.00;53.00;;;;;;5112435;28;20032;-78
2023/06/30 06:41:40;;;;;;;1.30;1.20;;;27.00;52.90;;;;;;5112504;28;20071;-78
2023/06/30 06:44:07;;;;;;;1.20;1.10;;;27.00;53.00;;;;;;5110628;28;20586;-77
2023/06/30 06:46:33;;;;;;;1.75;1.05;;;27.00;53.00;;;;;;5112389;28;20027;-78
2023/06/30 06:48:59;;;;;;;1.42;1.15;;;27.00;53.10;;;;;;5112175;28;20076;-78
2023/06/30 06:51:25;;;;;;;1.27;1.17;;;27.00;53.00;;;;;;5112061;28;20027;-78
2023/06/30 06:53:54;;;;;;;1.15;1.00;;;27.00;53.00;;;;;;5110898;28;20044;-78
2023/06/30 06:56:20;;;;;;;1.38;1.13;;;27.00;53.00;;;;;;5112012;28;20057;-78
2023/06/30 06:58:46;;;;;;;1.20;1.00;;;27.00;53.00;;;;;;5112527;28;20062;-78
2023/06/30 07:01:12;;;;;;;1.58;1.13;;;27.00;53.00;;;;;;5112013;28;20087;-78
2023/06/30 07:03:38;;;;;;;1.10;1.00;;;27.00;53.10;;;;;;5111877;28;20436;-78
2023/06/30 07:06:07;;;;;;;2.38;1.20;;;26.90;52.50;;;;;;5112141;28;20038;-78
2023/06/30 07:08:35;;;;;;;2.15;1.27;;;27.20;53.00;;;;;;5112219;28;20059;-78
2023/06/30 07:11:06;;;;;;;1.50;1.17;;;27.00;53.10;;;;;;5112006;28;20042;-77
2023/06/30 07:13:32;;;;;;;2.45;1.23;;;27.00;53.00;;;;;;5110540;28;20108;-78
2023/06/30 07:15:58;;;;;;;2.83;1.80;;;27.10;53.10;;;;;;5111904;28;20043;-78
2023/06/30 07:18:25;;;;;;;1.92;1.35;;;27.10;53.10;;;;;;5111775;28;20039;-78
2023/06/30 07:20:54;;;;;;;1.55;1.45;;;27.10;53.10;;;;;;5111746;28;20043;-78
2023/06/30 07:23:20;;;;;;;1.50;1.40;;;27.10;53.10;;;;;;5111634;28;20039;-78
2023/06/30 07:25:47;;;;;;;1.92;1.50;;;27.00;53.10;;;;;;5111786;28;20128;-78
2023/06/30 07:28:13;;;;;;;3.03;2.47;;;27.10;53.00;;;;;;5111447;28;20156;-78
2023/06/30 07:30:41;;;;;;;3.88;2.83;;;27.20;53.10;;;;;;5111511;28;20114;-76
2023/06/30 07:33:07;;;;;;;2.47;1.77;;;27.00;53.00;;;;;;5109991;28;20047;-76
2023/06/30 07:35:33;;;;;;;2.30;1.63;;;27.10;53.00;;;;;;5091898;28;20077;-76
2023/06/30 07:37:58;;;;;;;1.90;1.30;;;26.90;52.50;;;;;;5108895;28;20051;-76
2023/06/30 07:40:24;;;;;;;1.85;1.40;;;27.10;53.00;;;;;;5108949;28;20079;-77
2023/06/30 07:42:50;;;;;;;2.33;2.13;;;27.10;53.10;;;;;;5108728;28;20024;-76
2023/06/30 07:45:17;;;;;;;1.33;1.17;;;27.00;53.00;;;;;;5108724;28;20073;-76
2023/06/30 07:47:45;;;;;;;1.83;1.52;;;27.00;53.00;;;;;;5108986;28;20386;-76
2023/06/30 07:50:13;;;;;;;2.88;2.47;;;27.00;53.00;;;;;;5108975;28;20036;-75
2023/06/30 07:52:44;;;;;;;1.88;1.38;;;27.00;53.00;;;;;;5108696;28;20046;-76
2023/06/30 07:55:12;;;;;;;1.95;1.38;;;26.90;52.40;;;;;;5108893;28;20074;-75
2023/06/30 07:57:39;;;;;;;1.88;1.50;;;27.00;53.00;;;;;;5092110;28;20032;-76
2023/06/30 08:00:06;;;;;;;1.50;1.25;;;27.00;53.00;;;;;;5108723;28;20044;-76
2023/06/30 08:02:39;;;;;;;1.65;1.55;;;27.00;53.00;;;;;;5092846;28;20035;-75
2023/06/30 08:05:05;;;;;;;2.00;1.55;;;26.90;52.40;;;;;;5108853;28;20031;-76
2023/06/30 08:07:31;;;;;;;2.75;2.50;;;27.00;53.10;;;;;;5108951;28;20123;-76
2023/06/30 08:09:57;;;;;;;1.40;1.30;;;27.10;53.10;;;;;;5110424;28;20099;-76
2023/06/30 08:12:23;;;;;;;2.28;1.92;;;27.00;53.10;;;;;;5113102;28;20436;-76
2023/06/30 08:14:49;;;;;;;5.25;1.67;;;27.00;53.00;;;;;;5114799;28;20097;-76
2023/06/30 08:17:16;;;;;;;1.30;1.20;;;26.90;52.50;;;;;;5115236;28;20042;-76
2023/06/30 08:19:42;;;;;;;2.05;1.75;;;27.00;53.00;;;;;;5115092;27;20032;-76
2023/06/30 08:22:16;;;;;;;2.45;2.25;;;27.00;53.10;;;;;;5114812;27;20031;-76
2023/06/30 08:24:43;;;;;;;3.67;2.65;;;27.00;53.10;;;;;;5114921;28;20046;-78
2023/06/30 08:27:09;;;;;;;1.77;1.65;;;26.90;52.50;;;;;;5114751;28;20429;-75
2023/06/30 08:29:36;;;;;;;1.65;1.30;;;27.20;53.10;;;;;;5114906;28;20030;-76
2023/06/30 08:32:02;;;;;;;1.92;1.50;;;27.00;53.10;;;;;;5114639;28;20039;-77
2023/06/30 08:34:28;;;;;;;1.83;1.35;;;27.00;53.10;;;;;;5113536;28;20039;-76
2023/06/30 08:36:55;;;;;;;4.35;2.22;;;27.00;53.00;;;;;;5114537;27;20028;-78
2023/06/30 08:39:22;;;;;;;2.22;1.60;;;27.00;53.10;;;;;;5114552;28;20032;-78
2023/06/30 08:41:52;;;;;;;2.22;1.90;;;27.10;53.10;;;;;;5112283;28;20055;-78
2023/06/30 08:44:25;;;;;;;1.55;1.23;;;27.10;53.10;;;;;;5114546;28;20081;-78
2023/06/30 08:46:56;;;;;;;4.15;1.58;;;27.00;53.00;;;;;;5113435;28;20055;-78
2023/06/30 08:49:23;;;;;;;2.10;1.45;;;27.00;53.10;;;;;;5114499;28;20032;-76
2023/06/30 08:51:56;;;;;;;3.03;1.90;;;27.10;53.00;;;;;;5114295;28;20041;-76
2023/06/30 08:54:23;;;;;;;;;;;27.00;53.00;;;;;;5114513;28;20034;-76
2023/06/30 08:56:49;;;;;;;3.22;1.30;;;27.00;53.10;;;;;;5113237;28;19965;-76
2023/06/30 08:59:15;;;;;;;1.70;1.60;;;27.00;53.10;;;;;;5114240;28;20027;-76
2023/06/30 09:01:44;;;;;;;1.00;1.00;;;27.00;53.10;;;;;;5114110;28;20020;-76
2023/06/30 09:04:11;;;;;;;1.70;1.33;;;27.00;53.00;;;;;;5113719;28;20059;-76
2023/06/30 09:06:46;;;;;;;1.52;1.30;;;27.00;53.10;;;;;;5113923;28;20036;-75
2023/06/30 09:09:21;;;;;;;2.78;1.48;;;26.90;52.50;;;;;;5113987;28;20483;-75
2023/06/30 09:11:49;;;;;;;2.72;1.38;;;26.80;52.50;;;;;;5113791;28;20031;-76
2023/06/30 09:14:17;;;;;;;3.50;1.95;;;27.00;53.10;;;;;;5116418;28;20088;-75
2023/06/30 09:16:43;;;;;;;2.55;1.70;;;27.00;53.10;;;;;;5112584;28;20042;-76
2023/06/30 09:19:09;;;;;;;1.33;1.23;;;27.00;53.10;;;;;;5113747;28;20028;-76
2023/06/30 09:21:35;;;;;;;1.65;1.55;;;27.00;53.10;;;;;;5112708;28;20043;-76
2023/06/30 09:24:01;;;;;;;1.95;1.70;;;27.00;53.10;;;;;;5113769;28;20102;-76
2023/06/30 09:26:29;;;;;;;1.85;1.60;;;27.00;53.10;;;;;;5112732;28;20206;-76
2023/06/30 09:28:56;;;;;;;2.38;1.42;;;27.10;53.10;;;;;;5113787;28;20545;-76
2023/06/30 09:31:32;;;;;;;1.63;1.45;;;27.20;53.10;;;;;;5113684;28;20058;-76
2023/06/30 09:34:12;;;;;;;1.63;1.48;;;27.00;53.10;;;;;;5113466;28;20039;-76
2023/06/30 09:36:49;;;;;;;1.80;1.70;;;27.10;53.20;;;;;;5112582;27;20040;-76
2023/06/30 09:39:16;;;;;;;6.78;2.30;;;27.00;53.10;;;;;;5113538;28;20042;-76
2023/06/30 09:41:43;;;;;;;2.75;1.98;;;27.20;53.10;;;;;;5113313;28;20028;-76
2023/06/30 09:44:13;;;;;;;1.30;1.20;;;27.00;53.00;;;;;;5113309;28;20043;-76
2023/06/30 09:46:50;;;;;;;1.55;1.45;;;27.00;53.10;;;;;;5113853;28;20027;-78
2023/06/30 09:49:23;;;;;;;2.60;1.70;;;27.00;53.20;;;;;;5095099;28;20031;-78
2023/06/30 09:51:50;;;;;;;1.85;1.33;;;27.10;53.10;;;;;;5113277;28;20032;-78
2023/06/30 09:54:20;;;;;;;3.90;1.60;;;27.00;53.10;;;;;;5112978;28;20403;-78
2023/06/30 09:56:46;;;;;;;1.27;1.15;;;27.00;53.10;;;;;;5113079;28;20036;-78
2023/06/30 09:59:13;;;;;;;3.08;1.60;;;27.00;53.10;;;;;;5095107;28;20036;-78
2023/06/30 10:01:41;;;;;;;2.35;1.45;;;27.00;53.00;;;;;;5130951;27;20150;-78
2023/06/30 10:04:07;;;;;;;1.80;1.52;;;27.00;53.10;;;;;;5130712;27;20054;-76
2023/06/30 10:06:35;;;;;;;1.60;1.50;;;27.00;53.10;;;;;;5130868;27;20051;-76
2023/06/30 10:09:04;;;;;;;2.47;1.77;;;26.90;52.50;;;;;;5113876;27;20031;-76
2023/06/30 10:11:31;;;;;;;2.00;1.42;;;27.00;53.10;;;;;;5113555;27;20051;-75
2023/06/30 10:13:59;;;;;;;1.52;1.38;;;27.00;53.20;;;;;;5130828;27;20035;-76
2023/06/30 10:16:26;;;;;;;2.10;1.33;;;27.00;53.20;;;;;;5130760;27;20051;-76
2023/06/30 10:18:54;;;;;;;1.65;1.55;;;26.90;52.60;;;;;;5131069;27;20034;-78
2023/06/30 10:21:21;;;;;;;2.45;1.50;;;27.00;53.20;;;;;;5113407;27;20039;-76
2023/06/30 10:23:49;;;;;;;3.97;2.28;;;27.10;53.30;;;;;;5130406;27;20070;-76
2023/06/30 10:26:19;;;;;;;1.60;1.50;;;26.90;52.70;;;;;;5130670;27;20047;-76
2023/06/30 10:28:47;;;;;;;2.60;2.40;;;26.90;52.70;;;;;;5113479;27;20049;-76
2023/06/30 10:31:13;;;;;;;1.50;1.40;;;26.90;52.70;;;;;;5130438;27;20046;-76
2023/06/30 10:33:40;;;;;;;1.50;1.40;;;27.00;53.20;;;;;;5110248;28;20043;-76
2023/06/30 10:36:07;;;;;;;2.92;1.88;;;27.00;53.20;;;;;;5094004;28;20060;-76
2023/06/30 10:38:34;;;;;;;4.20;2.22;;;27.00;53.20;;;;;;5112074;28;20075;-76
2023/06/30 10:41:19;;;;;;;2.03;1.88;;;27.00;53.20;;;;;;5112166;28;20031;-76
2023/06/30 10:44:03;;;;;;;2.15;1.95;;;27.20;53.20;;;;;;5110531;28;20052;-76
2023/06/30 10:46:49;;;;;;;2.50;2.00;;;27.00;53.20;;;;;;5112300;28;20028;-76
2023/06/30 10:49:38;;;;;;;1.60;1.50;;;27.10;53.10;;;;;;5112572;28;20108;-78
2023/06/30 10:52:08;;;;;;;2.50;2.00;;;27.10;53.10;;;;;;5112186;28;20039;-78
2023/06/30 10:54:48;;;;;;;1.58;1.48;;;27.00;53.10;;;;;;5112069;28;20050;-78
2023/06/30 10:57:19;;;;;;;1.75;1.35;;;27.10;53.10;;;;;;5111884;28;20035;-78
2023/06/30 10:59:47;;;;;;;3.20;2.72;;;27.00;53.10;;;;;;5111129;28;20077;-78
2023/06/30 11:02:21;;;;;;;4.90;2.17;;;27.00;53.20;;;;;;5111921;28;20481;-78
2023/06/30 11:04:50;;;;;;;3.00;1.60;;;27.00;53.00;;;;;;5112016;28;20515;-77
2023/06/30 11:07:27;;;;;;;1.52;1.30;;;26.90;52.70;;;;;;5112090;28;20044;-78
2023/06/30 11:09:52;;;;;;;1.50;1.40;;;27.00;53.20;;;;;;5111878;27;20062;-78
2023/06/30 11:12:26;;;;;;;1.90;1.38;;;27.00;53.20;;;;;;5110471;28;20071;-78
2023/06/30 11:14:55;;;;;;;1.50;1.40;;;27.00;53.10;;;;;;5110429;28;20494;-78
2023/06/30 11:17:41;;;;;;;1.50;1.35;;;27.00;53.10;;;;;;5111809;28;20024;-78
2023/06/30 11:20:07;;;;;;;1.88;1.77;;;27.10;53.20;;;;;;5111767;28;20395;-78
2023/06/30 11:22:33;;;;;;;1.80;1.58;;;26.90;52.70;;;;;;5110369;28;20028;-78
2023/06/30 11:25:09;;;;;;;2.70;1.80;;;27.10;53.30;;;;;;5110631;28;20031;-77
2023/06/30 11:27:35;;;;;;;2.08;1.75;;;27.00;53.30;;;;;;5093463;28;20403;-78
2023/06/30 11:30:01;;;;;;;1.42;1.30;;;27.00;53.30;;;;;;5110444;28;20032;-76
2023/06/30 11:32:32;;;;;;;2.15;1.38;;;26.90;52.80;;;;;;5111725;28;20129;-75
2023/06/30 11:35:01;;;;;;;1.08;1.02;;;27.00;53.40;;;;;;5111408;28;20034;-76
2023/06/30 11:37:27;;;;;;;1.40;1.30;;;27.00;53.40;;;;;;5111508;28;20040;-75
2023/06/30 11:39:55;;;;;;;1.15;1.13;;;27.10;53.40;;;;;;5111661;28;20088;-76
2023/06/30 11:42:22;;;;;;;2.75;1.77;;;27.10;53.40;;;;;;5111395;28;20071;-76
2023/06/30 11:44:49;;;;;;;1.65;1.45;;;27.00;53.40;;;;;;5094565;28;20050;-76
2023/06/30 11:47:19;;;;;;;2.95;2.47;;;27.00;53.40;;;;;;5113989;28;20127;-76
2023/06/30 11:49:46;;;;;;;2.08;1.90;;;27.10;53.40;;;;;;5115888;28;20099;-76
2023/06/30 11:52:14;;;;;;;1.40;1.15;;;27.00;53.40;;;;;;5115509;28;20058;-76
2023/06/30 11:54:40;;;;;;;1.45;1.35;;;27.10;53.40;;;;;;5115538;28;20050;-75
2023/06/30 11:57:07;;;;;;;1.73;1.48;;;27.00;53.40;;;;;;5115746;28;20039;-76
2023/06/30 11:59:33;;;;;;;2.97;1.73;;;27.10;53.30;;;;;;5115156;28;20106;-76
2023/06/30 12:02:00;;;;;;;1.33;1.20;;;27.00;53.30;;;;;;5114335;28;20061;-76
2023/06/30 12:04:33;;;;;;;2.40;1.65;;;27.00;53.40;;;;;;5115161;28;20111;-75
2023/06/30 12:07:05;;;;;;;1.52;1.42;;;27.00;53.30;;;;;;5115452;28;20077;-78
2023/06/30 12:09:34;;;;;;;1.33;1.20;;;26.90;52.70;;;;;;5115148;28;20059;-76
2023/06/30 12:12:00;;;;;;;2.00;1.80;;;27.00;53.30;;;;;;5114864;28;20063;-76
2023/06/30 12:14:27;;;;;;;2.63;1.92;;;27.00;53.30;;;;;;5114772;27;20390;-75
2023/06/30 12:16:53;;;;;;;1.38;1.27;;;27.00;53.30;;;;;;5114942;28;20101;-76
2023/06/30 12:19:27;;;;;;;1.30;1.20;;;26.90;52.70;;;;;;5115120;28;20437;-76
2023/06/30 12:22:03;;;;;;;1.45;1.30;;;27.00;53.30;;;;;;5114975;28;20036;-75
2023/06/30 12:24:31;;;;;;;1.52;1.27;;;27.00;53.30;;;;;;5113217;28;20035;-75
2023/06/30 12:26:57;;;;;;;1.83;1.40;;;26.90;52.70;;;;;;5113511;28;20413;-76
2023/06/30 12:29:23;;;;;;;2.50;1.50;;;26.90;52.80;;;;;;5114551;28;20058;-76
2023/06/30 12:31:50;;;;;;;1.40;1.30;;;27.00;53.40;;;;;;5114778;28;20124;-76
2023/06/30 12:34:32;;;;;;;1.38;1.15;;;27.10;53.40;;;;;;5114611;28;20040;-76
2023/06/30 12:36:59;;;;;;;1.10;1.00;;;26.90;52.80;;;;;;5114600;28;20398;-75
2023/06/30 12:39:25;;;;;;;1.65;1.55;;;26.90;52.90;;;;;;5114488;28;20065;-75
2023/06/30 12:41:51;;;;;;;2.05;1.80;;;27.00;53.40;;;;;;5114680;28;20457;-75
2023/06/30 12:44:17;;;;;;;1.50;1.40;;;26.90;52.80;;;;;;5114593;28;20388;-76
2023/06/30 12:46:43;;;;;;;2.00;1.80;;;27.00;53.40;;;;;;5111792;28;20583;-76
2023/06/30 12:49:10;;;;;;;0.98;0.98;;;27.00;53.40;;;;;;5114420;28;20114;-76